BAW9707 EPWA-EKCH
Flight info
| Callsign | BAW9707 |
|---|---|
| Flight time | 1h 7m |
| Altitude | 24000 |
| Route | OLILA L621 RILAB/N0445F360 L621 LUSID DCT ROE M743 TIDVU |
| Aircraft | A320/M-SDE3FGHIRWY/LB1 |
Departure
| Time | 2026-04-30 18:18 |
|---|---|
| Airport | Warsaw Chopin Airport (EPWA) |
Arrival
| Time | 2026-04-30 19:25 |
|---|---|
| Airport | Copenhagen Kastrup Airport (EKCH) |
| Time | Latitude | Longitude | Altitude | Speed | Heading |
|---|---|---|---|---|---|
| 2026-04-30 17:39 | 52.17393 | 20.96771 | 352 ft | 0 kts | 88° |
| 2026-04-30 18:03 | 52.17388 | 20.96693 | 358 ft | 4 kts | 97° |
| 2026-04-30 18:04 | 52.17417 | 20.96617 | 362 ft | 0 kts | 154° |
| 2026-04-30 18:13 | 52.17360 | 20.96663 | 352 ft | 8 kts | 153° |
| 2026-04-30 18:14 | 52.17235 | 20.96774 | 358 ft | 13 kts | 151° |
| 2026-04-30 18:15 | 52.16947 | 20.97022 | 358 ft | 15 kts | 152° |
| 2026-04-30 18:15 | 52.16601 | 20.97325 | 358 ft | 13 kts | 151° |
| 2026-04-30 18:16 | 52.16501 | 20.97629 | 356 ft | 18 kts | 114° |
| 2026-04-30 18:16 | 52.16380 | 20.97780 | 355 ft | 3 kts | 206° |
| 2026-04-30 18:17 | 52.16370 | 20.97772 | 355 ft | 4 kts | 206° |
| 2026-04-30 18:17 | 52.16333 | 20.97742 | 355 ft | 8 kts | 206° |
| 2026-04-30 18:17 | 52.16345 | 20.97529 | 355 ft | 37 kts | 294° |
| 2026-04-30 18:18 | 52.16588 | 20.96671 | 359 ft | 124 kts | 295° |
| 2026-04-30 18:18 | 52.17050 | 20.95092 | 522 ft | 172 kts | 297° |
| 2026-04-30 18:18 | 52.17572 | 20.93312 | 1418 ft | 176 kts | 297° |
| 2026-04-30 18:18 | 52.18088 | 20.91515 | 2183 ft | 179 kts | 297° |
| 2026-04-30 18:19 | 52.18802 | 20.89725 | 2515 ft | 197 kts | 314° |
| 2026-04-30 18:19 | 52.19975 | 20.88417 | 2869 ft | 216 kts | 332° |
| 2026-04-30 18:19 | 52.21318 | 20.87098 | 3359 ft | 236 kts | 327° |
| 2026-04-30 18:19 | 52.22720 | 20.85575 | 4106 ft | 246 kts | 327° |
| 2026-04-30 18:20 | 52.24143 | 20.83990 | 5069 ft | 249 kts | 327° |
| 2026-04-30 18:20 | 52.25579 | 20.82387 | 6022 ft | 251 kts | 328° |
| 2026-04-30 18:20 | 52.27034 | 20.80771 | 6965 ft | 253 kts | 329° |
| 2026-04-30 18:20 | 52.28503 | 20.79151 | 7830 ft | 257 kts | 329° |
| 2026-04-30 18:21 | 52.29995 | 20.77510 | 8670 ft | 261 kts | 330° |
| 2026-04-30 18:21 | 52.31516 | 20.75840 | 9503 ft | 265 kts | 330° |
| 2026-04-30 18:21 | 52.33059 | 20.74149 | 10321 ft | 270 kts | 330° |
| 2026-04-30 18:21 | 52.34655 | 20.72406 | 10764 ft | 287 kts | 331° |
| 2026-04-30 18:22 | 52.36382 | 20.70528 | 10971 ft | 309 kts | 330° |
| 2026-04-30 18:22 | 52.40066 | 20.66502 | 12179 ft | 323 kts | 331° |
| 2026-04-30 18:22 | 52.41941 | 20.64441 | 12896 ft | 326 kts | 331° |
| 2026-04-30 18:23 | 52.43836 | 20.62354 | 13630 ft | 329 kts | 331° |
| 2026-04-30 18:23 | 52.45743 | 20.60249 | 14339 ft | 332 kts | 332° |
| 2026-04-30 18:23 | 52.47670 | 20.58115 | 14985 ft | 335 kts | 332° |
| 2026-04-30 18:23 | 52.49609 | 20.55971 | 15609 ft | 338 kts | 332° |
| 2026-04-30 18:24 | 52.53543 | 20.51614 | 16838 ft | 344 kts | 332° |
| 2026-04-30 18:24 | 52.55535 | 20.49407 | 17472 ft | 347 kts | 332° |
| 2026-04-30 18:24 | 52.57548 | 20.47184 | 18106 ft | 350 kts | 333° |
| 2026-04-30 18:25 | 52.59576 | 20.44947 | 18728 ft | 353 kts | 333° |
| 2026-04-30 18:25 | 52.63677 | 20.40404 | 19857 ft | 358 kts | 333° |
| 2026-04-30 18:25 | 52.65751 | 20.38096 | 20449 ft | 361 kts | 333° |
| 2026-04-30 18:26 | 52.69919 | 20.33380 | 21637 ft | 369 kts | 329° |
| 2026-04-30 18:26 | 52.71802 | 20.30408 | 22230 ft | 380 kts | 321° |
| 2026-04-30 18:26 | 52.73569 | 20.27147 | 22791 ft | 383 kts | 321° |
| 2026-04-30 18:27 | 52.77136 | 20.20555 | 23889 ft | 387 kts | 321° |
| 2026-04-30 18:27 | 52.78933 | 20.17230 | 24260 ft | 389 kts | 321° |
| 2026-04-30 18:28 | 52.82510 | 20.10545 | 24374 ft | 387 kts | 320° |
| 2026-04-30 18:28 | 52.84247 | 20.07145 | 24373 ft | 388 kts | 320° |
| 2026-04-30 18:28 | 52.87679 | 20.00257 | 24374 ft | 388 kts | 319° |
| 2026-04-30 18:29 | 52.89391 | 19.96809 | 24369 ft | 388 kts | 319° |
| 2026-04-30 18:29 | 52.94528 | 19.86534 | 24371 ft | 387 kts | 319° |
| 2026-04-30 18:30 | 52.97975 | 19.79662 | 24376 ft | 388 kts | 320° |
| 2026-04-30 18:30 | 53.01414 | 19.72774 | 24380 ft | 388 kts | 319° |
| 2026-04-30 18:31 | 53.03134 | 19.69311 | 24380 ft | 388 kts | 319° |
| 2026-04-30 18:31 | 53.06580 | 19.62411 | 24341 ft | 387 kts | 320° |
| 2026-04-30 18:32 | 53.10252 | 19.55942 | 24348 ft | 383 kts | 324° |
| 2026-04-30 18:32 | 53.12143 | 19.52824 | 24353 ft | 383 kts | 324° |
| 2026-04-30 18:32 | 53.15926 | 19.46580 | 24362 ft | 383 kts | 324° |
| 2026-04-30 18:33 | 53.17799 | 19.43425 | 24358 ft | 384 kts | 323° |
| 2026-04-30 18:33 | 53.21529 | 19.37032 | 24365 ft | 384 kts | 323° |
| 2026-04-30 18:33 | 53.23382 | 19.33815 | 24367 ft | 385 kts | 322° |
| 2026-04-30 18:34 | 53.25186 | 19.30496 | 24373 ft | 387 kts | 321° |
| 2026-04-30 18:34 | 53.28711 | 19.23647 | 24344 ft | 389 kts | 319° |
| 2026-04-30 18:34 | 53.30465 | 19.20190 | 24343 ft | 390 kts | 319° |
| 2026-04-30 18:35 | 53.32225 | 19.16744 | 24343 ft | 390 kts | 320° |
| 2026-04-30 18:35 | 53.33972 | 19.13350 | 24348 ft | 390 kts | 320° |
| 2026-04-30 18:35 | 53.35749 | 19.09919 | 24352 ft | 390 kts | 320° |
| 2026-04-30 18:36 | 53.39308 | 19.03066 | 24356 ft | 390 kts | 320° |
| 2026-04-30 18:36 | 53.41090 | 18.99626 | 24360 ft | 390 kts | 320° |
| 2026-04-30 18:36 | 53.44644 | 18.92734 | 24366 ft | 391 kts | 320° |
| 2026-04-30 18:37 | 53.46418 | 18.89280 | 24333 ft | 391 kts | 319° |
| 2026-04-30 18:37 | 53.48191 | 18.85814 | 24336 ft | 391 kts | 319° |
| 2026-04-30 18:37 | 53.49961 | 18.82349 | 24339 ft | 392 kts | 319° |
| 2026-04-30 18:37 | 53.51733 | 18.78869 | 24342 ft | 393 kts | 318° |
| 2026-04-30 18:38 | 53.53332 | 18.75086 | 24338 ft | 399 kts | 312° |
| 2026-04-30 18:38 | 53.54867 | 18.71195 | 24347 ft | 399 kts | 312° |
| 2026-04-30 18:38 | 53.56400 | 18.67299 | 24353 ft | 400 kts | 312° |
| 2026-04-30 18:38 | 53.57935 | 18.63391 | 24358 ft | 400 kts | 312° |
| 2026-04-30 18:39 | 53.59465 | 18.59490 | 24362 ft | 400 kts | 312° |
| 2026-04-30 18:39 | 53.60998 | 18.55575 | 24373 ft | 400 kts | 312° |
| 2026-04-30 18:39 | 53.62526 | 18.51666 | 24373 ft | 400 kts | 312° |
| 2026-04-30 18:39 | 53.64053 | 18.47753 | 24350 ft | 400 kts | 312° |
| 2026-04-30 18:40 | 53.65580 | 18.43836 | 24354 ft | 400 kts | 311° |
| 2026-04-30 18:40 | 53.67104 | 18.39920 | 24363 ft | 400 kts | 311° |
| 2026-04-30 18:40 | 53.68629 | 18.35998 | 24372 ft | 400 kts | 311° |
| 2026-04-30 18:40 | 53.70154 | 18.32072 | 24375 ft | 400 kts | 311° |
| 2026-04-30 18:41 | 53.71678 | 18.28152 | 24378 ft | 400 kts | 311° |
| 2026-04-30 18:41 | 53.73200 | 18.24233 | 24382 ft | 400 kts | 311° |
| 2026-04-30 18:41 | 53.74724 | 18.20298 | 24384 ft | 400 kts | 311° |
| 2026-04-30 18:41 | 53.76240 | 18.16367 | 24387 ft | 400 kts | 311° |
| 2026-04-30 18:42 | 53.77757 | 18.12427 | 24389 ft | 400 kts | 311° |
| 2026-04-30 18:42 | 53.80786 | 18.04544 | 24360 ft | 400 kts | 311° |
| 2026-04-30 18:42 | 53.82275 | 18.00652 | 24366 ft | 399 kts | 311° |
| 2026-04-30 18:45 | 53.97312 | 17.61072 | 24406 ft | 399 kts | 310° |
| 2026-04-30 18:45 | 53.98808 | 17.57105 | 24381 ft | 399 kts | 310° |
| 2026-04-30 18:45 | 54.00305 | 17.53127 | 24388 ft | 398 kts | 310° |
| 2026-04-30 18:46 | 54.01797 | 17.49159 | 24397 ft | 398 kts | 310° |
| 2026-04-30 18:46 | 54.03288 | 17.45187 | 24401 ft | 398 kts | 310° |
| 2026-04-30 18:46 | 54.04776 | 17.41215 | 24404 ft | 398 kts | 310° |
| 2026-04-30 18:46 | 54.06263 | 17.37238 | 24412 ft | 398 kts | 310° |
| 2026-04-30 18:47 | 54.07750 | 17.33253 | 24416 ft | 398 kts | 310° |
| 2026-04-30 18:47 | 54.09232 | 17.29272 | 24414 ft | 398 kts | 310° |
| 2026-04-30 18:47 | 54.10713 | 17.25288 | 24413 ft | 398 kts | 310° |
| 2026-04-30 18:47 | 54.12196 | 17.21296 | 24417 ft | 398 kts | 310° |
| 2026-04-30 18:48 | 54.13677 | 17.17304 | 24414 ft | 398 kts | 310° |
| 2026-04-30 18:48 | 54.15156 | 17.13316 | 24395 ft | 398 kts | 309° |
| 2026-04-30 18:48 | 54.16635 | 17.09317 | 24400 ft | 398 kts | 309° |
| 2026-04-30 18:48 | 54.18111 | 17.05317 | 24405 ft | 398 kts | 309° |
| 2026-04-30 18:49 | 54.19584 | 17.01316 | 24404 ft | 398 kts | 309° |
| 2026-04-30 18:49 | 54.21056 | 16.97310 | 24407 ft | 398 kts | 309° |
| 2026-04-30 18:49 | 54.22506 | 16.93353 | 24409 ft | 398 kts | 309° |
| 2026-04-30 18:49 | 54.23991 | 16.89290 | 24411 ft | 398 kts | 309° |
| 2026-04-30 18:50 | 54.25486 | 16.85386 | 24417 ft | 396 kts | 312° |
| 2026-04-30 18:50 | 54.27090 | 16.81577 | 24417 ft | 394 kts | 314° |
| 2026-04-30 18:50 | 54.28750 | 16.77859 | 24421 ft | 393 kts | 315° |
| 2026-04-30 18:50 | 54.30431 | 16.74174 | 24421 ft | 393 kts | 315° |
| 2026-04-30 18:51 | 54.32110 | 16.70480 | 24394 ft | 393 kts | 314° |
| 2026-04-30 18:51 | 54.33774 | 16.66764 | 24397 ft | 394 kts | 314° |
| 2026-04-30 18:51 | 54.35427 | 16.63014 | 24400 ft | 394 kts | 314° |
| 2026-04-30 18:51 | 54.37067 | 16.59245 | 24403 ft | 394 kts | 313° |
| 2026-04-30 18:52 | 54.38697 | 16.55471 | 24400 ft | 395 kts | 313° |
| 2026-04-30 18:52 | 54.40327 | 16.51686 | 24406 ft | 394 kts | 313° |
| 2026-04-30 18:52 | 54.41958 | 16.47899 | 24412 ft | 394 kts | 313° |
| 2026-04-30 18:52 | 54.43589 | 16.44115 | 24419 ft | 394 kts | 313° |
| 2026-04-30 18:53 | 54.45221 | 16.40332 | 24418 ft | 394 kts | 313° |
| 2026-04-30 18:53 | 54.46852 | 16.36547 | 24409 ft | 394 kts | 313° |
| 2026-04-30 18:53 | 54.48486 | 16.32750 | 24420 ft | 394 kts | 313° |
| 2026-04-30 18:53 | 54.50107 | 16.28980 | 24419 ft | 394 kts | 313° |
| 2026-04-30 18:54 | 54.51733 | 16.25191 | 24391 ft | 394 kts | 313° |
| 2026-04-30 18:54 | 54.53359 | 16.21391 | 24398 ft | 394 kts | 313° |
| 2026-04-30 18:54 | 54.54982 | 16.17587 | 24394 ft | 394 kts | 313° |
| 2026-04-30 18:54 | 54.56604 | 16.13784 | 24399 ft | 394 kts | 313° |
| 2026-04-30 18:55 | 54.58223 | 16.09985 | 24399 ft | 394 kts | 313° |
| 2026-04-30 18:55 | 54.60921 | 16.03650 | 24403 ft | 394 kts | 312° |
| 2026-04-30 18:55 | 54.62540 | 15.99833 | 24400 ft | 394 kts | 312° |
| 2026-04-30 18:56 | 54.65774 | 15.92189 | 24403 ft | 394 kts | 312° |
| 2026-04-30 18:56 | 54.67389 | 15.88358 | 24405 ft | 394 kts | 312° |
| 2026-04-30 18:56 | 54.69001 | 15.84525 | 24406 ft | 394 kts | 312° |
| 2026-04-30 18:57 | 54.72223 | 15.76844 | 24406 ft | 394 kts | 312° |
| 2026-04-30 18:57 | 54.73833 | 15.73004 | 24406 ft | 394 kts | 312° |
| 2026-04-30 18:57 | 54.75437 | 15.69151 | 24407 ft | 395 kts | 312° |
| 2026-04-30 18:58 | 54.78629 | 15.61430 | 24402 ft | 394 kts | 311° |
| 2026-04-30 18:58 | 54.80227 | 15.57555 | 24405 ft | 394 kts | 311° |
| 2026-04-30 18:58 | 54.81817 | 15.53698 | 24405 ft | 394 kts | 311° |
| 2026-04-30 18:59 | 54.84992 | 15.45963 | 24406 ft | 393 kts | 311° |
| 2026-04-30 19:00 | 54.89740 | 15.34348 | 24389 ft | 393 kts | 311° |
| 2026-04-30 19:00 | 54.91313 | 15.30456 | 24392 ft | 395 kts | 309° |
| 2026-04-30 19:00 | 54.93840 | 15.21873 | 24387 ft | 400 kts | 302° |
| 2026-04-30 19:01 | 54.96268 | 15.13148 | 24393 ft | 400 kts | 302° |
| 2026-04-30 19:01 | 54.97480 | 15.08788 | 24394 ft | 401 kts | 302° |
| 2026-04-30 19:02 | 54.99906 | 15.00045 | 24400 ft | 401 kts | 302° |
| 2026-04-30 19:02 | 55.02322 | 14.91297 | 24395 ft | 401 kts | 302° |
| 2026-04-30 19:03 | 55.04729 | 14.82537 | 24383 ft | 401 kts | 301° |
| 2026-04-30 19:03 | 55.07143 | 14.73774 | 24390 ft | 400 kts | 302° |
| 2026-04-30 19:04 | 55.09670 | 14.65113 | 24344 ft | 400 kts | 303° |
| 2026-04-30 19:04 | 55.12208 | 14.56598 | 23009 ft | 383 kts | 303° |
| 2026-04-30 19:05 | 55.14524 | 14.48701 | 22179 ft | 350 kts | 303° |
| 2026-04-30 19:05 | 55.16672 | 14.41309 | 21314 ft | 339 kts | 303° |
| 2026-04-30 19:06 | 55.18037 | 14.33323 | 21095 ft | 348 kts | 288° |
| 2026-04-30 19:06 | 55.18519 | 14.29170 | 21031 ft | 349 kts | 287° |
| 2026-04-30 19:06 | 55.19463 | 14.20841 | 20873 ft | 348 kts | 287° |
| 2026-04-30 19:07 | 55.20384 | 14.12591 | 20719 ft | 347 kts | 287° |
| 2026-04-30 19:07 | 55.20860 | 14.08343 | 20385 ft | 365 kts | 287° |
| 2026-04-30 19:08 | 55.21840 | 13.99550 | 19854 ft | 369 kts | 287° |
| 2026-04-30 19:08 | 55.22797 | 13.90757 | 19180 ft | 364 kts | 286° |
| 2026-04-30 19:08 | 55.23268 | 13.86400 | 18696 ft | 363 kts | 286° |
| 2026-04-30 19:09 | 55.24211 | 13.77747 | 17718 ft | 359 kts | 286° |
| 2026-04-30 19:09 | 55.24675 | 13.73456 | 17247 ft | 357 kts | 285° |
| 2026-04-30 19:09 | 55.25137 | 13.69185 | 16774 ft | 356 kts | 285° |
| 2026-04-30 19:10 | 55.26046 | 13.60705 | 15833 ft | 353 kts | 285° |
| 2026-04-30 19:10 | 55.26947 | 13.52266 | 14897 ft | 351 kts | 285° |
| 2026-04-30 19:11 | 55.27396 | 13.48065 | 14433 ft | 350 kts | 285° |
| 2026-04-30 19:11 | 55.28284 | 13.39682 | 13445 ft | 348 kts | 285° |
| 2026-04-30 19:11 | 55.28718 | 13.35523 | 12983 ft | 345 kts | 284° |
| 2026-04-30 19:12 | 55.29148 | 13.31393 | 12516 ft | 343 kts | 284° |
| 2026-04-30 19:12 | 55.29574 | 13.27288 | 12060 ft | 341 kts | 284° |
| 2026-04-30 19:12 | 55.29997 | 13.23215 | 11608 ft | 339 kts | 284° |
| 2026-04-30 19:13 | 55.30839 | 13.15129 | 10702 ft | 335 kts | 283° |
| 2026-04-30 19:13 | 55.31654 | 13.07200 | 10138 ft | 321 kts | 283° |
| 2026-04-30 19:13 | 55.32037 | 13.03412 | 10002 ft | 309 kts | 283° |
| 2026-04-30 19:14 | 55.32406 | 12.99762 | 9836 ft | 300 kts | 283° |
| 2026-04-30 19:14 | 55.32771 | 12.96174 | 9498 ft | 298 kts | 283° |
| 2026-04-30 19:14 | 55.33135 | 12.92602 | 9121 ft | 297 kts | 283° |
| 2026-04-30 19:14 | 55.33497 | 12.89038 | 8763 ft | 296 kts | 283° |
| 2026-04-30 19:15 | 55.33856 | 12.85489 | 8404 ft | 295 kts | 283° |
| 2026-04-30 19:15 | 55.34563 | 12.78426 | 7695 ft | 293 kts | 282° |
| 2026-04-30 19:15 | 55.34914 | 12.74915 | 7315 ft | 290 kts | 282° |
| 2026-04-30 19:16 | 55.35261 | 12.71436 | 6693 ft | 288 kts | 282° |
| 2026-04-30 19:16 | 55.35601 | 12.68021 | 6086 ft | 286 kts | 282° |
| 2026-04-30 19:16 | 55.36255 | 12.61327 | 5118 ft | 272 kts | 281° |
| 2026-04-30 19:17 | 55.36553 | 12.58096 | 4695 ft | 264 kts | 280° |
| 2026-04-30 19:17 | 55.37074 | 12.51898 | 3959 ft | 244 kts | 280° |
| 2026-04-30 19:17 | 55.37309 | 12.49028 | 3662 ft | 233 kts | 280° |
| 2026-04-30 19:18 | 55.37676 | 12.44382 | 3025 ft | 222 kts | 280° |
| 2026-04-30 19:18 | 55.37928 | 12.40958 | 3037 ft | 205 kts | 280° |
| 2026-04-30 19:18 | 55.38113 | 12.38573 | 3005 ft | 191 kts | 287° |
| 2026-04-30 19:19 | 55.38780 | 12.36698 | 2998 ft | 180 kts | 326° |
| 2026-04-30 19:19 | 55.39941 | 12.36111 | 3012 ft | 176 kts | 4° |
| 2026-04-30 19:19 | 55.42247 | 12.37635 | 3017 ft | 178 kts | 22° |
| 2026-04-30 19:20 | 55.43379 | 12.38511 | 3007 ft | 178 kts | 22° |
| 2026-04-30 19:20 | 55.44510 | 12.39389 | 3009 ft | 178 kts | 22° |
| 2026-04-30 19:20 | 55.46726 | 12.41318 | 3000 ft | 179 kts | 34° |
| 2026-04-30 19:21 | 55.47705 | 12.42695 | 2959 ft | 180 kts | 37° |
| 2026-04-30 19:21 | 55.49595 | 12.45552 | 2554 ft | 178 kts | 37° |
| 2026-04-30 19:22 | 55.51250 | 12.48094 | 2133 ft | 141 kts | 36° |
| 2026-04-30 19:22 | 55.53383 | 12.51364 | 1580 ft | 134 kts | 36° |
| 2026-04-30 19:23 | 55.55495 | 12.54609 | 1014 ft | 135 kts | 36° |
| 2026-04-30 19:24 | 55.56901 | 12.56784 | 657 ft | 134 kts | 37° |
| 2026-04-30 19:24 | 55.57604 | 12.57862 | 482 ft | 134 kts | 39° |
| 2026-04-30 19:24 | 55.58986 | 12.60012 | 104 ft | 131 kts | 39° |
| 2026-04-30 19:25 | 55.60425 | 12.62206 | 19 ft | 32 kts | 37° |
| 2026-04-30 19:26 | 55.60721 | 12.62374 | 23 ft | 19 kts | 11° |
| 2026-04-30 19:26 | 55.60963 | 12.62671 | 21 ft | 24 kts | 40° |
| 2026-04-30 19:26 | 55.61093 | 12.62867 | 21 ft | 25 kts | 41° |
| 2026-04-30 19:27 | 55.61364 | 12.63277 | 21 ft | 28 kts | 42° |
| 2026-04-30 19:27 | 55.61688 | 12.63788 | 19 ft | 33 kts | 41° |
| 2026-04-30 19:28 | 55.61853 | 12.64039 | 21 ft | 25 kts | 40° |
| 2026-04-30 19:28 | 55.62123 | 12.64282 | 19 ft | 12 kts | 26° |
| 2026-04-30 19:29 | 55.62144 | 12.64299 | 17 ft | 0 kts | 26° |
| 2026-04-30 19:30 | 55.62144 | 12.64300 | 17 ft | 1 kts | 26° |
| 2026-04-30 19:31 | 55.62216 | 12.64362 | 19 ft | 9 kts | 27° |
| 2026-04-30 19:31 | 55.62250 | 12.64415 | 19 ft | 6 kts | 56° |
| 2026-04-30 19:31 | 55.62298 | 12.64606 | 20 ft | 11 kts | 67° |
| 2026-04-30 19:32 | 55.62310 | 12.64740 | 23 ft | 11 kts | 109° |
| 2026-04-30 19:32 | 55.62267 | 12.64858 | 27 ft | 12 kts | 126° |
| 2026-04-30 19:32 | 55.62271 | 12.64904 | 25 ft | 4 kts | 13° |
| 2026-04-30 19:32 | 55.62309 | 12.64925 | 26 ft | 7 kts | 34° |
| 2026-04-30 19:33 | 55.62294 | 12.65024 | 25 ft | 11 kts | 124° |
| 2026-04-30 19:33 | 55.62289 | 12.65170 | 25 ft | 15 kts | 47° |
| 2026-04-30 19:33 | 55.62384 | 12.65189 | 21 ft | 13 kts | 353° |
| 2026-04-30 19:33 | 55.62489 | 12.65185 | 20 ft | 17 kts | 359° |
| 2026-04-30 19:34 | 55.62606 | 12.65180 | 19 ft | 17 kts | 2° |
| 2026-04-30 19:34 | 55.62706 | 12.65185 | 19 ft | 11 kts | 1° |
| 2026-04-30 19:34 | 55.62734 | 12.65185 | 19 ft | 0 kts | 0° |